createdAt,value
2023-12-13T00:01:44.554Z,18.70
2023-12-13T00:04:12.896Z,15.80
2023-12-13T00:06:41.118Z,15.70
2023-12-13T00:09:10.154Z,15.13
2023-12-13T00:11:39.942Z,16.40
2023-12-13T00:14:08.306Z,16.40
2023-12-13T00:16:38.464Z,20.57
2023-12-13T00:19:07.428Z,19.23
2023-12-13T00:21:36.427Z,17.80
2023-12-13T00:24:05.590Z,15.27
2023-12-13T00:26:33.566Z,16.60
2023-12-13T00:29:04.192Z,17.73
2023-12-13T00:31:32.330Z,18.10
2023-12-13T00:34:00.460Z,15.97
2023-12-13T00:36:28.548Z,17.10
2023-12-13T00:38:56.706Z,16.43
2023-12-13T00:41:25.566Z,15.10
2023-12-13T00:43:53.706Z,16.60
2023-12-13T00:46:24.085Z,15.47
2023-12-13T00:48:52.340Z,17.50
2023-12-13T00:51:21.778Z,20.43
2023-12-13T00:53:50.667Z,17.97
2023-12-13T00:56:18.897Z,17.63
2023-12-13T00:58:48.828Z,19.03
2023-12-13T01:01:17.995Z,16.73
2023-12-13T01:03:47.549Z,19.33
2023-12-13T01:06:15.651Z,18.37
2023-12-13T01:08:43.600Z,20.00
2023-12-13T01:11:12.167Z,19.00
2023-12-13T01:13:40.637Z,18.00
2023-12-13T01:16:09.180Z,17.50
2023-12-13T01:18:37.826Z,18.87
2023-12-13T01:21:07.666Z,18.13
2023-12-13T01:23:35.561Z,19.40
2023-12-13T01:26:03.574Z,17.50
2023-12-13T01:28:31.654Z,18.70
2023-12-13T01:31:00.180Z,16.97
2023-12-13T01:33:28.185Z,16.90
2023-12-13T01:35:56.240Z,17.60
2023-12-13T01:38:25.565Z,15.93
2023-12-13T01:41:11.061Z,14.20
2023-12-13T01:43:42.433Z,14.40
2023-12-13T01:46:11.323Z,18.73
2023-12-13T01:48:39.669Z,17.03
2023-12-13T01:51:08.843Z,13.57
2023-12-13T01:53:39.883Z,16.27
2023-12-13T01:56:09.645Z,16.83
2023-12-13T01:58:39.864Z,14.63
2023-12-13T02:01:09.437Z,15.77
2023-12-13T02:03:38.371Z,17.80
2023-12-13T02:06:07.046Z,16.00
2023-12-13T02:08:35.715Z,19.97
2023-12-13T02:11:05.545Z,17.80
2023-12-13T02:13:34.198Z,16.03
2023-12-13T02:16:02.398Z,15.23
2023-12-13T02:18:30.508Z,18.20
2023-12-13T02:20:58.581Z,18.03
2023-12-13T02:23:27.882Z,22.20
2023-12-13T02:26:00.741Z,17.50
2023-12-13T02:28:30.366Z,20.77
2023-12-13T02:30:59.904Z,17.50
2023-12-13T02:33:29.117Z,16.20
2023-12-13T02:35:58.857Z,17.07
2023-12-13T02:38:28.432Z,18.07
2023-12-13T02:40:56.470Z,19.53
2023-12-13T02:43:24.553Z,18.80
2023-12-13T02:45:52.941Z,22.07
2023-12-13T02:48:21.066Z,23.43
2023-12-13T02:50:49.910Z,21.13
2023-12-13T02:53:18.075Z,20.97
2023-12-13T02:55:47.761Z,21.53
2023-12-13T02:58:16.423Z,20.87
2023-12-13T03:00:44.429Z,19.43
2023-12-13T03:03:12.825Z,19.80
2023-12-13T03:05:40.963Z,23.20
2023-12-13T03:08:08.934Z,23.97
2023-12-13T03:10:37.005Z,23.60
2023-12-13T03:13:06.526Z,21.70
2023-12-13T03:15:34.445Z,22.30
2023-12-13T03:18:02.604Z,19.93
2023-12-13T03:20:31.748Z,24.30
2023-12-13T03:22:59.743Z,27.77
2023-12-13T03:25:27.713Z,21.27
2023-12-13T03:27:55.596Z,24.33
2023-12-13T03:30:25.077Z,22.27
2023-12-13T03:32:53.109Z,22.50
2023-12-13T03:35:21.037Z,21.43
2023-12-13T03:37:49.206Z,21.57
2023-12-13T03:40:17.822Z,21.47
2023-12-13T03:42:45.920Z,24.13
2023-12-13T03:45:13.868Z,25.70
2023-12-13T03:47:43.806Z,25.97
2023-12-13T03:50:11.958Z,25.43
2023-12-13T03:52:40.089Z,26.63
2023-12-13T03:55:08.941Z,24.40
2023-12-13T03:57:37.096Z,23.70
2023-12-13T04:00:05.820Z,24.83
2023-12-13T04:02:33.743Z,24.90
2023-12-13T04:05:03.182Z,21.93
2023-12-13T04:07:31.483Z,26.50
2023-12-13T04:09:59.499Z,25.07
2023-12-13T04:12:27.411Z,23.50
2023-12-13T04:14:56.613Z,24.77
2023-12-13T04:17:24.522Z,25.80
2023-12-13T04:19:52.471Z,22.23
2023-12-13T04:22:21.893Z,26.37
2023-12-13T04:24:49.873Z,23.43
2023-12-13T04:27:17.937Z,25.83
2023-12-13T04:29:45.890Z,24.03
2023-12-13T04:32:13.999Z,19.53
2023-12-13T04:34:41.971Z,24.27
2023-12-13T04:37:10.092Z,22.97
2023-12-13T04:39:39.611Z,22.90
2023-12-13T04:42:07.818Z,22.90
2023-12-13T04:44:35.898Z,22.73
2023-12-13T04:47:04.912Z,24.40
2023-12-13T04:49:33.477Z,22.80
2023-12-13T04:52:01.483Z,20.97
2023-12-13T04:54:29.429Z,26.17
2023-12-13T04:56:58.931Z,24.53
2023-12-13T04:59:26.906Z,21.30
2023-12-13T05:01:54.892Z,21.20
2023-12-13T05:04:23.149Z,25.23
2023-12-13T05:06:51.128Z,23.07
2023-12-13T05:09:19.143Z,20.33
2023-12-13T05:11:47.240Z,25.43
2023-12-13T05:14:16.562Z,25.07
2023-12-13T05:16:44.623Z,23.60
2023-12-13T05:19:12.845Z,24.33
2023-12-13T05:21:40.851Z,22.90
2023-12-13T05:24:08.948Z,25.50
2023-12-13T05:26:37.174Z,23.17
2023-12-13T05:29:05.406Z,28.00
2023-12-13T05:31:35.310Z,23.07
2023-12-13T05:34:03.939Z,24.57
2023-12-13T05:36:32.127Z,29.57
2023-12-13T05:39:00.114Z,26.67
2023-12-13T05:41:28.027Z,26.60
2023-12-13T05:43:56.167Z,23.47
2023-12-13T05:46:24.369Z,23.90
2023-12-13T05:48:54.044Z,22.77
2023-12-13T05:51:22.217Z,24.37
2023-12-13T05:53:50.208Z,25.80
2023-12-13T05:56:18.244Z,27.17
2023-12-13T05:58:46.424Z,26.37
2023-12-13T06:01:14.484Z,26.20
2023-12-13T06:03:42.739Z,27.57
2023-12-13T06:06:12.217Z,26.70
2023-12-13T06:08:42.556Z,25.00
2023-12-13T06:11:10.522Z,24.90
2023-12-13T06:13:38.677Z,26.07
2023-12-13T06:16:08.540Z,29.47
2023-12-13T06:18:36.698Z,29.67
2023-12-13T06:21:04.920Z,29.43
2023-12-13T06:23:34.340Z,27.47
2023-12-13T06:26:02.380Z,29.00
2023-12-13T06:28:30.619Z,24.93
2023-12-13T06:30:58.714Z,28.37
2023-12-13T06:33:26.938Z,26.53
2023-12-13T06:35:55.665Z,26.63
2023-12-13T06:38:23.651Z,28.63
2023-12-13T06:40:53.146Z,28.03
2023-12-13T06:43:21.494Z,26.33
2023-12-13T06:45:49.411Z,24.90
2023-12-13T06:48:17.349Z,26.03
2023-12-13T06:50:45.331Z,22.53
2023-12-13T06:53:13.529Z,22.83
2023-12-13T06:55:41.715Z,21.43
2023-12-13T06:58:11.227Z,24.90
2023-12-13T07:00:39.217Z,21.27
2023-12-13T07:03:07.338Z,22.63
2023-12-13T07:05:35.492Z,27.07
2023-12-13T07:08:03.727Z,23.60
2023-12-13T07:10:31.821Z,24.80
2023-12-13T07:12:59.945Z,25.07
2023-12-13T07:15:29.340Z,20.90
2023-12-13T07:17:57.332Z,25.27
2023-12-13T07:20:25.337Z,19.67
2023-12-13T07:22:53.327Z,22.37
2023-12-13T07:25:21.572Z,23.13
2023-12-13T07:27:49.497Z,25.30
2023-12-13T07:30:17.752Z,24.30
2023-12-13T07:32:47.407Z,20.60
2023-12-13T07:35:16.229Z,21.37
2023-12-13T07:37:44.642Z,26.37
2023-12-13T07:40:13.545Z,24.67
2023-12-13T07:42:42.673Z,22.47
2023-12-13T07:45:11.976Z,23.33
2023-12-13T07:47:40.352Z,23.00
2023-12-13T07:50:10.570Z,23.93
2023-12-13T07:52:38.755Z,20.50
2023-12-13T07:55:07.718Z,19.93
2023-12-13T07:57:35.847Z,22.27
2023-12-13T08:00:04.410Z,20.73
2023-12-13T08:02:35.786Z,19.67
2023-12-13T08:05:11.110Z,22.07
2023-12-13T08:07:39.055Z,20.67
2023-12-13T08:10:08.891Z,20.80
2023-12-13T08:12:37.149Z,22.27
2023-12-13T08:15:06.532Z,19.97
2023-12-13T08:17:35.603Z,20.17
2023-12-13T08:20:03.774Z,20.37
2023-12-13T08:22:33.304Z,19.60
2023-12-13T08:25:01.326Z,21.50
2023-12-13T08:27:29.284Z,19.83
2023-12-13T08:29:57.228Z,17.93
2023-12-13T08:32:25.136Z,20.10
2023-12-13T08:34:53.080Z,18.63
2023-12-13T08:37:22.470Z,19.03
2023-12-13T08:39:53.374Z,23.97
2023-12-13T08:42:22.460Z,26.03
2023-12-13T08:44:51.278Z,21.80
2023-12-13T08:47:20.311Z,18.97
2023-12-13T08:49:48.602Z,20.43
2023-12-13T08:52:18.489Z,22.47
2023-12-13T08:54:46.427Z,21.40
2023-12-13T08:57:15.738Z,23.07
2023-12-13T08:59:46.163Z,21.83
2023-12-13T09:02:15.590Z,22.40
2023-12-13T09:04:44.312Z,22.30
2023-12-13T09:07:14.613Z,21.60
2023-12-13T09:09:43.867Z,23.63
2023-12-13T09:12:14.849Z,22.77
2023-12-13T09:14:45.506Z,20.23
2023-12-13T09:17:13.391Z,27.17
2023-12-13T09:19:41.407Z,22.17
2023-12-13T09:22:09.380Z,24.33
2023-12-13T09:24:37.829Z,26.60
2023-12-13T09:27:06.516Z,22.13
2023-12-13T09:29:44.666Z,21.30
2023-12-13T09:32:14.922Z,24.87
2023-12-13T09:34:43.117Z,22.07
2023-12-13T09:37:11.209Z,19.40
2023-12-13T09:39:39.134Z,22.43
2023-12-13T09:42:06.176Z,19.57
2023-12-13T09:44:34.690Z,22.77
2023-12-13T09:47:05.220Z,20.00
2023-12-13T09:49:38.662Z,18.77
2023-12-13T09:52:10.132Z,20.17
2023-12-13T09:54:40.686Z,17.17
2023-12-13T09:57:09.002Z,15.87
2023-12-13T09:59:39.417Z,21.57
2023-12-13T10:02:14.940Z,17.83
2023-12-13T10:04:46.551Z,17.60
2023-12-13T10:07:16.283Z,21.30
2023-12-13T10:09:44.529Z,18.43
2023-12-13T10:12:13.610Z,16.20
2023-12-13T10:14:52.692Z,17.73
2023-12-13T10:17:21.976Z,17.77
2023-12-13T10:19:58.942Z,18.10
2023-12-13T10:22:27.537Z,17.17
2023-12-13T10:24:55.507Z,17.70
2023-12-13T10:27:23.504Z,16.97
2023-12-13T10:29:53.602Z,19.37
2023-12-13T10:32:22.626Z,16.47
2023-12-13T10:34:52.176Z,17.20
2023-12-13T10:37:21.428Z,18.33
2023-12-13T10:39:51.927Z,18.17
2023-12-13T10:42:22.200Z,15.73
2023-12-13T10:44:53.409Z,18.67
2023-12-13T10:47:25.020Z,15.97
2023-12-13T10:49:56.898Z,16.03
2023-12-13T10:52:28.149Z,15.37
2023-12-13T10:54:56.578Z,15.87
2023-12-13T10:57:25.361Z,16.03
2023-12-13T10:59:53.942Z,17.03
2023-12-13T11:02:23.272Z,16.50
2023-12-13T11:04:51.895Z,15.87
2023-12-13T11:07:22.866Z,16.97
2023-12-13T11:09:52.661Z,15.87
2023-12-13T11:12:20.748Z,15.03
2023-12-13T11:14:52.729Z,15.47
2023-12-13T11:17:21.769Z,16.17
2023-12-13T11:19:51.770Z,13.70
2023-12-13T11:22:23.795Z,14.77
2023-12-13T11:25:02.387Z,12.43
2023-12-13T11:27:32.845Z,13.47
2023-12-13T11:30:02.105Z,12.17
2023-12-13T11:32:35.981Z,14.37
2023-12-13T11:35:15.028Z,14.27
2023-12-13T11:37:45.001Z,11.00
2023-12-13T11:40:14.231Z,12.87
2023-12-13T11:42:52.110Z,13.30
2023-12-13T11:45:26.232Z,12.20
2023-12-13T11:48:16.755Z,9.70
2023-12-13T11:50:51.483Z,10.70
2023-12-13T11:53:21.103Z,11.47
2023-12-13T11:55:49.106Z,12.20
2023-12-13T11:58:17.623Z,11.40
2023-12-13T12:00:45.744Z,12.87
2023-12-13T12:03:13.840Z,12.07
2023-12-13T12:05:43.731Z,12.63
2023-12-13T12:08:13.178Z,11.47
2023-12-13T12:10:44.908Z,13.53
2023-12-13T12:13:16.241Z,11.50
2023-12-13T12:15:45.436Z,10.47
2023-12-13T12:18:13.608Z,12.50
2023-12-13T12:20:42.235Z,12.13
2023-12-13T12:23:10.700Z,10.40
2023-12-13T12:25:41.505Z,11.80
2023-12-13T12:28:12.807Z,11.77
2023-12-13T12:30:41.665Z,11.47
2023-12-13T12:33:10.851Z,10.03
2023-12-13T12:35:38.882Z,14.13
2023-12-13T12:38:09.612Z,13.87
2023-12-13T12:40:37.794Z,13.47
2023-12-13T12:43:05.831Z,12.83
2023-12-13T12:45:35.287Z,12.37
2023-12-13T12:48:03.950Z,12.10
2023-12-13T12:50:32.244Z,15.20
2023-12-13T12:53:01.173Z,11.90
2023-12-13T12:55:29.310Z,11.53
2023-12-13T12:57:57.478Z,10.97
2023-12-13T13:00:26.462Z,13.47
2023-12-13T13:02:56.296Z,14.03
2023-12-13T13:05:24.594Z,13.13
2023-12-13T13:07:53.523Z,13.80
2023-12-13T13:10:29.646Z,13.00
2023-12-13T13:12:57.773Z,13.50
2023-12-13T13:15:25.923Z,12.83
2023-12-13T13:17:55.385Z,12.23
2023-12-13T13:20:23.535Z,13.10
2023-12-13T13:22:51.622Z,11.63
2023-12-13T13:25:20.843Z,10.00
2023-12-13T13:27:49.145Z,11.90
2023-12-13T13:30:17.411Z,13.70
2023-12-13T13:32:45.642Z,13.37
2023-12-13T13:35:15.394Z,10.17
2023-12-13T13:37:43.607Z,12.57
2023-12-13T13:40:14.223Z,12.57
2023-12-13T13:42:42.337Z,12.37
2023-12-13T13:45:12.117Z,11.17
2023-12-13T13:47:40.350Z,10.93
2023-12-13T13:50:12.722Z,11.33
2023-12-13T13:52:43.780Z,14.07
2023-12-13T13:55:11.893Z,12.30
2023-12-13T13:57:40.110Z,15.63
2023-12-13T14:00:11.876Z,10.17
2023-12-13T14:02:40.253Z,12.97
2023-12-13T14:05:09.658Z,13.53
2023-12-13T14:07:38.206Z,14.87
2023-12-13T14:10:09.859Z,13.07
2023-12-13T14:12:37.763Z,11.57
2023-12-13T14:15:06.608Z,13.33
2023-12-13T14:17:34.921Z,13.67
2023-12-13T14:20:03.238Z,14.43
2023-12-13T14:22:31.911Z,13.40
2023-12-13T14:24:59.939Z,13.40
2023-12-13T14:27:29.354Z,13.67
2023-12-13T14:29:57.524Z,14.50
2023-12-13T14:32:26.359Z,13.27
2023-12-13T14:34:54.729Z,14.43
2023-12-13T14:37:22.984Z,12.90
2023-12-13T14:39:50.988Z,14.17
2023-12-13T14:42:19.085Z,12.63
2023-12-13T14:44:48.523Z,14.70
2023-12-13T14:47:17.840Z,13.63
2023-12-13T14:49:46.937Z,16.07
2023-12-13T14:52:15.042Z,13.93
2023-12-13T14:54:43.074Z,16.77
2023-12-13T14:57:11.332Z,15.90
2023-12-13T14:59:39.366Z,16.00
2023-12-13T15:02:09.158Z,15.13
2023-12-13T15:04:38.152Z,16.23
2023-12-13T15:07:08.452Z,14.83
2023-12-13T15:09:36.759Z,13.70
2023-12-13T15:12:05.294Z,16.33
2023-12-13T15:14:33.452Z,17.10
2023-12-13T15:17:02.050Z,15.23
2023-12-13T15:19:31.947Z,17.00
2023-12-13T15:22:00.845Z,16.10
2023-12-13T15:24:28.874Z,15.60
2023-12-13T15:26:56.978Z,16.63
2023-12-13T15:29:25.193Z,15.63
2023-12-13T15:31:53.267Z,15.80
2023-12-13T15:34:21.317Z,15.43
2023-12-13T15:36:50.657Z,16.53
2023-12-13T15:39:18.628Z,17.43
2023-12-13T15:41:46.696Z,18.23
2023-12-13T15:44:16.433Z,17.70
2023-12-13T15:46:44.503Z,14.90
2023-12-13T15:49:12.530Z,19.00
2023-12-13T15:51:40.571Z,16.80
2023-12-13T15:54:10.189Z,16.43
2023-12-13T15:56:38.173Z,17.70
2023-12-13T15:59:06.102Z,15.73
2023-12-13T16:01:34.170Z,18.23
2023-12-13T16:04:02.216Z,17.57
2023-12-13T16:06:30.200Z,16.53
2023-12-13T16:08:58.251Z,16.50
2023-12-13T16:11:27.694Z,15.70
2023-12-13T16:13:55.923Z,16.87
2023-12-13T16:16:23.969Z,16.20
2023-12-13T16:18:54.093Z,16.63
2023-12-13T16:21:22.358Z,15.27
2023-12-13T16:23:50.658Z,16.13
2023-12-13T16:26:18.619Z,16.93
2023-12-13T16:28:47.967Z,15.57
2023-12-13T16:31:15.955Z,17.33
2023-12-13T16:33:44.023Z,13.93
2023-12-13T16:36:12.187Z,13.73
2023-12-13T16:38:40.525Z,12.17
2023-12-13T16:41:08.921Z,13.23
2023-12-13T16:43:36.882Z,12.30
2023-12-13T16:46:08.896Z,11.37
2023-12-13T16:48:37.034Z,13.37
2023-12-13T16:51:06.337Z,11.87
2023-12-13T16:53:37.670Z,12.20
2023-12-13T16:56:08.947Z,12.57
2023-12-13T16:58:36.863Z,13.07
2023-12-13T17:01:08.227Z,12.83
2023-12-13T17:03:39.674Z,10.83
2023-12-13T17:06:08.748Z,11.70
2023-12-13T17:08:36.653Z,11.73
2023-12-13T17:11:05.314Z,10.70
2023-12-13T17:13:33.358Z,12.40
2023-12-13T17:16:01.342Z,10.83
2023-12-13T17:18:32.916Z,11.07
2023-12-13T17:21:01.949Z,9.90
2023-12-13T17:23:29.946Z,10.70
2023-12-13T17:25:57.984Z,9.73
2023-12-13T17:28:26.161Z,11.00
2023-12-13T17:30:54.771Z,10.23
2023-12-13T17:33:23.595Z,10.70
2023-12-13T17:35:54.080Z,12.23
2023-12-13T17:38:21.916Z,12.23
2023-12-13T17:40:49.953Z,11.50
2023-12-13T17:43:17.884Z,11.93
2023-12-13T17:45:45.908Z,12.70
2023-12-13T17:48:13.942Z,11.10
2023-12-13T17:50:42.627Z,11.53
2023-12-13T17:53:12.062Z,13.10
2023-12-13T17:55:40.089Z,13.27
2023-12-13T17:58:07.957Z,11.87
2023-12-13T18:00:35.878Z,11.67
2023-12-13T18:03:04.392Z,10.80
2023-12-13T18:05:32.273Z,12.43
2023-12-13T18:08:00.480Z,10.93
2023-12-13T18:10:29.930Z,10.63
2023-12-13T18:12:58.006Z,12.07
2023-12-13T18:15:26.671Z,11.50
2023-12-13T18:17:54.596Z,12.10
2023-12-13T18:20:22.581Z,12.07
2023-12-13T18:22:50.828Z,10.67
2023-12-13T18:25:20.504Z,10.10
2023-12-13T18:27:49.911Z,11.50
2023-12-13T18:30:18.079Z,10.93
2023-12-13T18:32:45.967Z,10.67
2023-12-13T18:35:14.074Z,11.60
2023-12-13T18:37:42.101Z,10.63
2023-12-13T18:40:11.646Z,11.83
2023-12-13T18:42:39.881Z,11.73
2023-12-13T18:45:12.377Z,10.13
2023-12-13T18:47:41.192Z,9.97
2023-12-13T18:50:10.171Z,10.97
2023-12-13T18:52:38.419Z,11.97
2023-12-13T18:55:11.729Z,10.47
2023-12-13T18:57:40.645Z,9.63
2023-12-13T19:00:11.598Z,9.17
2023-12-13T19:02:39.623Z,10.57
2023-12-13T19:05:08.662Z,10.37
2023-12-13T19:07:36.603Z,8.77
2023-12-13T19:10:04.751Z,9.77
2023-12-13T19:12:32.922Z,8.30
2023-12-13T19:15:00.979Z,8.80
2023-12-13T19:17:30.299Z,8.50
2023-12-13T19:19:58.440Z,8.63
2023-12-13T19:22:26.510Z,9.50
2023-12-13T19:24:55.017Z,9.67
2023-12-13T19:27:22.893Z,10.30
2023-12-13T19:29:50.757Z,11.00
2023-12-13T19:32:18.671Z,11.40
2023-12-13T19:34:48.621Z,12.63
2023-12-13T19:37:16.615Z,11.63
2023-12-13T19:39:44.506Z,14.40
2023-12-13T19:42:12.679Z,10.93
2023-12-13T19:44:40.661Z,16.53
2023-12-13T19:47:09.139Z,13.80
2023-12-13T19:49:37.115Z,13.83
2023-12-13T19:52:06.943Z,16.03
2023-12-13T19:54:35.218Z,16.03
2023-12-13T19:57:03.288Z,18.53
2023-12-13T19:59:31.338Z,13.87
2023-12-13T20:01:59.395Z,16.47
2023-12-13T20:04:27.422Z,13.80
2023-12-13T20:06:55.396Z,17.83
2023-12-13T20:09:25.871Z,19.70
2023-12-13T20:11:54.675Z,16.23
2023-12-13T20:14:22.673Z,19.20
2023-12-13T20:16:50.549Z,17.93
2023-12-13T20:19:18.698Z,17.07
2023-12-13T20:21:46.692Z,16.10
2023-12-13T20:24:14.798Z,17.23
2023-12-13T20:26:44.354Z,17.53
2023-12-13T20:29:12.493Z,18.07
2023-12-13T20:31:40.733Z,17.60
2023-12-13T20:34:08.943Z,18.13
2023-12-13T20:36:38.078Z,16.37
2023-12-13T20:39:06.447Z,18.00
2023-12-13T20:41:34.671Z,16.43
2023-12-13T20:44:04.155Z,18.27
2023-12-13T20:46:32.211Z,15.43
2023-12-13T20:49:00.094Z,16.20
2023-12-13T20:51:28.095Z,15.27
2023-12-13T20:53:56.068Z,15.73
2023-12-13T20:56:26.063Z,16.47
2023-12-13T20:58:53.963Z,14.53
2023-12-13T21:01:23.417Z,16.33
2023-12-13T21:03:51.546Z,13.90
2023-12-13T21:06:19.706Z,15.63
2023-12-13T21:08:48.599Z,15.33
2023-12-13T21:11:16.550Z,15.40
2023-12-13T21:13:44.458Z,15.03
2023-12-13T21:16:13.547Z,13.77
2023-12-13T21:18:43.108Z,14.00
2023-12-13T21:21:11.041Z,14.23
2023-12-13T21:23:39.155Z,13.83
2023-12-13T21:26:07.420Z,15.67
2023-12-13T21:28:35.507Z,15.63
2023-12-13T21:31:04.480Z,14.13
2023-12-13T21:33:32.553Z,13.37
2023-12-13T21:36:02.003Z,15.00
2023-12-13T21:38:30.009Z,15.20
2023-12-13T21:40:59.723Z,13.53
2023-12-13T21:43:33.184Z,12.53
2023-12-13T21:46:01.298Z,14.40
2023-12-13T21:48:29.884Z,12.73
2023-12-13T21:50:57.868Z,12.73
2023-12-13T21:53:27.344Z,15.77
2023-12-13T21:55:55.384Z,15.23
2023-12-13T21:58:23.269Z,13.97
2023-12-13T22:00:52.186Z,14.33
2023-12-13T22:03:20.289Z,12.77
2023-12-13T22:05:48.233Z,13.17
2023-12-13T22:08:16.399Z,14.73
2023-12-13T22:10:50.556Z,14.60
2023-12-13T22:13:18.870Z,14.17
2023-12-13T22:15:46.899Z,13.90
2023-12-13T22:18:23.233Z,12.70
2023-12-13T22:20:55.522Z,15.03
2023-12-13T22:23:25.346Z,13.47
2023-12-13T22:25:55.807Z,13.83
2023-12-13T22:28:22.663Z,16.23
2023-12-13T22:30:50.737Z,15.13
2023-12-13T22:33:19.031Z,15.77
2023-12-13T22:35:47.202Z,16.37
2023-12-13T22:38:15.187Z,16.60
2023-12-13T22:40:43.317Z,13.70
2023-12-13T22:43:12.796Z,14.90
2023-12-13T22:45:40.918Z,14.60
2023-12-13T22:48:09.147Z,13.17
2023-12-13T22:50:37.852Z,14.27
2023-12-13T22:53:05.908Z,15.33
2023-12-13T22:55:33.928Z,12.90
2023-12-13T22:58:03.411Z,15.47
2023-12-13T23:00:32.818Z,15.43
2023-12-13T23:03:00.819Z,12.50
2023-12-13T23:05:28.896Z,15.30
2023-12-13T23:07:57.028Z,14.60
2023-12-13T23:10:24.949Z,13.80
2023-12-13T23:12:53.991Z,14.70
2023-12-13T23:15:21.869Z,13.17
2023-12-13T23:17:51.374Z,14.87
2023-12-13T23:20:19.732Z,17.10
2023-12-13T23:22:47.708Z,15.10
2023-12-13T23:25:15.896Z,15.83
2023-12-13T23:27:43.754Z,15.27
2023-12-13T23:30:12.264Z,18.23
2023-12-13T23:32:40.646Z,16.00
2023-12-13T23:35:11.148Z,13.30
2023-12-13T23:37:39.150Z,16.47
2023-12-13T23:40:08.979Z,14.53
2023-12-13T23:42:37.328Z,15.03
2023-12-13T23:45:06.432Z,16.50
2023-12-13T23:47:34.431Z,14.40
2023-12-13T23:50:02.438Z,14.47
2023-12-13T23:52:32.054Z,17.20
2023-12-13T23:55:00.182Z,14.13
2023-12-13T23:57:28.625Z,12.97
2023-12-13T23:59:56.539Z,13.27
